createdAt,value
2022-10-22T00:00:49.495Z,100252.97
2022-10-22T00:31:10.396Z,100215.48
2022-10-22T01:01:13.990Z,100212.00
2022-10-22T01:31:17.041Z,100185.12
2022-10-22T02:01:20.205Z,100221.00
2022-10-22T02:31:23.054Z,100185.89
2022-10-22T03:01:26.238Z,100210.28
2022-10-22T03:31:29.315Z,100214.00
2022-10-22T04:01:32.872Z,100214.27
2022-10-22T04:31:35.723Z,100202.56
2022-10-22T05:01:42.625Z,100219.63
2022-10-22T05:31:46.577Z,100249.48
2022-10-22T06:01:49.869Z,100259.49
2022-10-22T06:31:52.836Z,100286.91
2022-10-22T07:01:56.143Z,100303.73
2022-10-22T07:32:00.041Z,100328.53
2022-10-22T08:02:04.058Z,100339.31
2022-10-22T08:32:08.039Z,100353.20
2022-10-22T09:02:10.774Z,100338.94
2022-10-22T09:32:14.696Z,100357.04
2022-10-22T10:02:37.037Z,100403.84
2022-10-22T10:32:42.095Z,100417.11
2022-10-22T11:02:45.445Z,100385.47
2022-10-22T11:32:48.889Z,100379.92
2022-10-22T12:02:51.925Z,100387.73
2022-10-22T12:32:55.437Z,100369.53
2022-10-22T13:02:58.474Z,100378.55
2022-10-22T13:33:01.827Z,100388.87
2022-10-22T14:03:05.274Z,100395.20
2022-10-22T14:33:08.146Z,100421.70
2022-10-22T15:03:11.657Z,100432.16
2022-10-22T15:33:15.680Z,100450.27
2022-10-22T16:03:18.975Z,100473.66
2022-10-22T16:33:22.425Z,100498.73
2022-10-22T17:03:27.601Z,100537.78
2022-10-22T17:33:32.461Z,100561.70
2022-10-22T18:03:35.243Z,100583.47
2022-10-22T18:33:39.248Z,100602.45
2022-10-22T19:03:42.280Z,100634.59
2022-10-22T19:33:46.213Z,100655.88
2022-10-22T20:03:49.314Z,100682.64
2022-10-22T20:33:53.551Z,100703.63
2022-10-22T21:03:57.064Z,100710.32
2022-10-22T21:34:00.515Z,100725.48
2022-10-22T22:04:04.503Z,100735.97
2022-10-22T22:34:08.103Z,100753.96
2022-10-22T23:04:13.398Z,100761.10
2022-10-22T23:34:17.008Z,100753.00
